Time;durP1;ratioP1;P1;durP2;ratioP2;P2;SDS_P1;SDS_P2;PMS_P1;PMS_P2;Temp;Humidity;BMP_temperature;BMP_pressure;BME280_temperature;BME280_humidity;BME280_pressure;Samples;Min_cycle;Max_cycle;Signal;HPM_P1;HPM_P2
2022/07/08 00:02:17;;;;;;;3.90;2.70;;;;;;;17.31;69.53;100388.83;130269;1268;108932;-76
2022/07/08 00:05:22;;;;;;;3.70;2.30;;;;;;;17.31;69.58;100394.52;130258;1268;108884;-77
2022/07/08 00:08:30;;;;;;;2.80;2.50;;;;;;;17.31;69.75;100393.65;130267;1268;108743;-77
2022/07/08 00:11:36;;;;;;;2.60;2.40;;;;;;;17.30;69.76;100394.60;130243;1268;108623;-74
2022/07/08 00:14:41;;;;;;;4.00;2.60;;;;;;;17.32;69.86;100394.74;130189;1268;108686;-75
2022/07/08 00:17:47;;;;;;;3.50;2.50;;;;;;;17.32;69.95;100397.41;130160;1268;107761;-73
2022/07/08 00:20:52;;;;;;;2.60;2.20;;;;;;;17.33;69.90;100399.06;130242;1268;108834;-74
2022/07/08 00:23:57;;;;;;;4.40;2.80;;;;;;;17.36;70.05;100401.11;130259;1268;108868;-76
2022/07/08 00:27:03;;;;;;;5.00;2.50;;;;;;;17.35;69.96;100400.45;130202;1268;108591;-76
2022/07/08 00:30:10;;;;;;;3.20;2.40;;;;;;;17.29;70.10;100400.27;130211;1268;109114;-76
2022/07/08 00:33:16;;;;;;;3.90;2.60;;;;;;;17.22;70.07;100404.08;130238;1268;108927;-76
2022/07/08 00:36:21;;;;;;;3.30;2.70;;;;;;;17.12;70.17;100404.22;130217;1268;108835;-78
2022/07/08 00:39:26;;;;;;;3.80;2.80;;;;;;;17.03;70.33;100401.84;130209;1268;108740;-78
2022/07/08 00:42:32;;;;;;;3.20;2.00;;;;;;;16.95;70.34;100402.09;130185;1268;107672;-80
2022/07/08 00:45:37;;;;;;;4.00;2.60;;;;;;;16.85;70.41;100406.27;130189;1268;108768;-75
2022/07/08 00:48:44;;;;;;;2.80;2.30;;;;;;;16.82;70.50;100402.37;130213;1268;108781;-74
2022/07/08 00:51:50;;;;;;;2.70;2.50;;;;;;;16.78;70.51;100406.28;130213;1268;109697;-75
2022/07/08 00:54:56;;;;;;;3.10;2.30;;;;;;;16.73;70.53;100409.74;130241;1268;108794;-76
2022/07/08 00:58:02;;;;;;;3.00;2.40;;;;;;;16.67;70.56;100406.20;130282;1268;108230;-72
2022/07/08 01:01:08;;;;;;;5.10;2.90;;;;;;;16.62;70.61;100412.92;130212;1268;108743;-72
2022/07/08 01:04:13;;;;;;;4.20;2.40;;;;;;;16.56;70.74;100415.30;130186;1268;108708;-72
2022/07/08 01:07:20;;;;;;;3.00;2.20;;;;;;;16.54;70.94;100420.82;130016;1268;207606;-72
2022/07/08 01:10:25;;;;;;;2.50;2.00;;;;;;;16.56;71.05;100417.27;130287;1268;107086;-72
2022/07/08 01:13:31;;;;;;;3.90;2.50;;;;;;;16.57;70.93;100418.71;130119;1270;108882;-72
2022/07/08 01:16:37;;;;;;;3.90;2.50;;;;;;;16.56;71.01;100419.17;130221;1268;108985;-72
2022/07/08 01:19:42;;;;;;;3.20;2.60;;;;;;;16.55;70.90;100422.95;130225;1268;108915;-73
2022/07/08 01:22:47;;;;;;;3.50;2.60;;;;;;;16.53;71.14;100422.89;130239;1268;108854;-73
2022/07/08 01:25:55;;;;;;;4.00;2.60;;;;;;;16.53;71.12;100421.27;130231;1268;108936;-73
2022/07/08 01:29:01;;;;;;;3.20;2.50;;;;;;;16.51;71.07;100425.27;130202;1268;108667;-75
2022/07/08 01:32:07;;;;;;;2.80;2.50;;;;;;;16.51;71.27;100426.88;130197;1270;107064;-73
2022/07/08 01:35:13;;;;;;;2.90;2.40;;;;;;;16.51;71.20;100427.39;130236;1268;109022;-74
2022/07/08 01:38:18;;;;;;;2.90;2.60;;;;;;;16.53;71.30;100425.91;130230;1267;107861;-74
2022/07/08 01:41:23;;;;;;;4.30;2.90;;;;;;;16.58;71.40;100421.88;130200;1268;107988;-78
2022/07/08 01:44:29;;;;;;;3.50;3.00;;;;;;;16.64;71.32;100425.64;130244;1268;108050;-79
2022/07/08 01:47:34;;;;;;;5.40;3.30;;;;;;;16.65;71.30;100427.92;130238;1268;108616;-76
2022/07/08 01:50:39;;;;;;;7.50;3.80;;;;;;;16.63;71.36;100429.73;130231;1268;108627;-75
2022/07/08 01:53:45;;;;;;;4.60;4.00;;;;;;;16.55;71.61;100435.04;130189;1268;109566;-74
2022/07/08 01:56:51;;;;;;;5.90;3.50;;;;;;;16.49;71.76;100437.84;130196;1268;108732;-75
2022/07/08 01:59:56;;;;;;;5.40;3.80;;;;;;;16.46;71.78;100436.36;130226;1268;108876;-73
2022/07/08 02:03:01;;;;;;;5.60;3.90;;;;;;;16.51;71.83;100439.81;130260;1268;108976;-72
2022/07/08 02:06:08;;;;;;;5.60;4.10;;;;;;;16.56;71.97;100438.43;130251;1268;108918;-74
2022/07/08 02:09:13;;;;;;;5.00;4.40;;;;;;;16.61;71.97;100437.13;130256;1268;108482;-74
2022/07/08 02:12:22;;;;;;;4.60;3.90;;;;;;;16.63;72.02;100440.42;130220;1268;108718;-72
2022/07/08 02:15:28;;;;;;;4.30;3.90;;;;;;;16.56;72.07;100443.23;130264;1268;108723;-73
2022/07/08 02:18:34;;;;;;;4.80;3.60;;;;;;;16.54;72.21;100448.23;130097;1268;106689;-74
2022/07/08 02:21:40;;;;;;;5.20;3.90;;;;;;;16.53;72.43;100448.54;130126;1270;108718;-74
2022/07/08 02:24:47;;;;;;;5.60;4.40;;;;;;;16.51;72.47;100448.35;130182;1267;108849;-74
2022/07/08 02:28:18;;;;;;;7.70;4.90;;;;;;;16.48;72.53;100448.23;130339;1268;107247;-77
2022/07/08 02:31:33;;;;;;;5.00;4.50;;;;;;;16.47;72.79;100452.08;130090;1268;107672;-76
2022/07/08 02:34:41;;;;;;;5.00;4.50;;;;;;;16.53;72.86;100451.60;130122;1268;108020;-75
2022/07/08 02:37:46;;;;;;;5.20;4.50;;;;;;;16.52;73.04;100457.65;130287;1267;108793;-73
2022/07/08 02:40:52;;;;;;;5.40;3.90;;;;;;;16.45;73.10;100460.42;130710;1268;108799;-73
2022/07/08 02:43:58;;;;;;;4.40;4.00;;;;;;;16.41;73.50;100459.65;130386;1267;110025;-72
2022/07/08 02:47:04;;;;;;;5.10;4.60;;;;;;;16.39;73.61;100465.63;130330;1267;108956;-79
2022/07/08 02:50:11;;;;;;;6.50;4.90;;;;;;;16.39;73.70;100468.57;130363;1267;108963;-73
2022/07/08 02:53:16;;;;;;;5.10;4.60;;;;;;;16.34;74.26;100466.09;130405;1267;108865;-71
2022/07/08 02:56:22;;;;;;;7.20;4.80;;;;;;;16.30;74.59;100468.54;130254;1268;108661;-71
2022/07/08 02:59:28;;;;;;;5.00;4.50;;;;;;;16.32;74.37;100469.39;130346;1267;109038;-71
2022/07/08 03:02:33;;;;;;;6.40;4.70;;;;;;;16.32;74.38;100464.54;130311;1267;107597;-71
2022/07/08 03:05:39;;;;;;;6.20;5.00;;;;;;;16.32;74.42;100469.21;130375;1267;109159;-71
2022/07/08 03:08:44;;;;;;;6.50;5.00;;;;;;;16.32;74.50;100470.63;129937;1268;109071;-71
2022/07/08 03:11:49;;;;;;;5.90;5.30;;;;;;;16.34;74.62;100471.69;130238;1268;108893;-71
2022/07/08 03:14:55;;;;;;;7.00;5.00;;;;;;;16.38;74.55;100475.24;130096;1268;108798;-71
2022/07/08 03:18:00;;;;;;;6.20;4.60;;;;;;;16.41;74.70;100478.34;130235;1268;108889;-71
2022/07/08 03:21:07;;;;;;;6.00;4.60;;;;;;;16.45;74.84;100482.34;130319;1267;108901;-71
2022/07/08 03:24:12;;;;;;;7.00;4.70;;;;;;;16.51;74.76;100484.15;130400;1267;108964;-71
2022/07/08 03:27:18;;;;;;;5.80;4.90;;;;;;;16.55;74.63;100486.36;130323;1267;109000;-72
2022/07/08 03:30:23;;;;;;;7.30;5.40;;;;;;;16.58;74.96;100490.79;130358;1267;108720;-72
2022/07/08 03:33:28;;;;;;;5.90;5.30;;;;;;;16.62;75.22;100494.87;130304;1267;108906;-71
2022/07/08 03:36:34;;;;;;;5.50;4.60;;;;;;;16.64;74.97;100493.70;130288;1267;108830;-71
2022/07/08 03:39:40;;;;;;;9.20;5.40;;;;;;;16.71;75.01;100493.54;130324;1267;109025;-71
2022/07/08 03:42:45;;;;;;;6.10;5.10;;;;;;;16.80;75.09;100492.63;130340;1267;109054;-72
2022/07/08 03:45:51;;;;;;;5.50;4.90;;;;;;;16.86;75.11;100500.56;130299;1267;108657;-71
2022/07/08 03:48:56;;;;;;;5.70;5.10;;;;;;;16.94;75.06;100502.64;130333;1267;108706;-72
2022/07/08 03:52:02;;;;;;;5.70;5.10;;;;;;;17.01;75.17;100502.70;130311;1267;109184;-71
2022/07/08 03:55:08;;;;;;;8.10;5.20;;;;;;;17.06;75.03;100506.52;130194;1268;107837;-71
2022/07/08 03:58:14;;;;;;;6.80;5.00;;;;;;;17.09;74.95;100505.61;130211;1268;108878;-71
2022/07/08 04:01:20;;;;;;;6.40;5.40;;;;;;;17.16;75.19;100510.51;130245;1267;107070;-72
2022/07/08 04:04:25;;;;;;;14.70;5.90;;;;;;;17.27;75.11;100510.61;130313;1267;108856;-72
2022/07/08 04:07:32;;;;;;;5.70;5.00;;;;;;;17.38;74.83;100513.02;130290;1268;108748;-71
2022/07/08 04:10:38;;;;;;;6.10;5.50;;;;;;;17.42;74.84;100510.20;130287;1267;108989;-72
2022/07/08 04:13:43;;;;;;;6.00;4.80;;;;;;;17.43;74.85;100515.77;130236;1268;108230;-71
2022/07/08 04:16:49;;;;;;;5.00;3.70;;;;;;;17.48;75.04;100524.17;130194;1268;108856;-71
2022/07/08 04:19:54;;;;;;;4.40;3.30;;;;;;;17.52;74.99;100523.20;130329;1268;108778;-71
2022/07/08 04:22:59;;;;;;;6.90;5.70;;;;;;;17.61;74.92;100527.08;130173;1268;108839;-71
2022/07/08 04:26:05;;;;;;;5.90;5.30;;;;;;;17.62;74.77;100526.84;130308;1267;108664;-71
2022/07/08 04:29:11;;;;;;;6.20;5.60;;;;;;;17.68;74.75;100527.19;130216;1268;108956;-71
2022/07/08 04:32:16;;;;;;;6.30;5.70;;;;;;;17.71;74.73;100528.30;130202;1268;108906;-71
2022/07/08 04:35:21;;;;;;;5.40;4.90;;;;;;;17.72;74.79;100530.21;130252;1268;108932;-73
2022/07/08 04:38:27;;;;;;;6.00;4.80;;;;;;;17.93;74.72;100532.79;130168;1268;108996;-71
2022/07/08 04:41:32;;;;;;;6.00;5.40;;;;;;;18.11;74.54;100533.95;130291;1267;108706;-72
2022/07/08 04:44:37;;;;;;;6.60;5.60;;;;;;;18.21;74.17;100536.73;130329;1268;108872;-73
2022/07/08 04:47:43;;;;;;;6.50;5.70;;;;;;;18.22;74.01;100532.73;130280;1267;108872;-71
2022/07/08 04:50:49;;;;;;;6.60;5.80;;;;;;;18.35;74.34;100535.86;130312;1267;107515;-73
2022/07/08 04:53:54;;;;;;;4.80;3.80;;;;;;;18.54;74.08;100535.28;130393;1267;108824;-72
2022/07/08 04:56:59;;;;;;;6.00;5.40;;;;;;;18.57;73.72;100542.20;130323;1268;108652;-71
2022/07/08 05:00:07;;;;;;;6.10;5.30;;;;;;;18.57;73.87;100543.73;130291;1267;108763;-71
2022/07/08 05:03:12;;;;;;;6.80;6.10;;;;;;;18.60;73.51;100546.91;130368;1267;108770;-71
2022/07/08 05:06:17;;;;;;;6.80;5.60;;;;;;;18.46;73.59;100551.99;130157;1268;108957;-71
2022/07/08 05:09:23;;;;;;;6.20;5.60;;;;;;;18.35;73.54;100552.79;130208;1268;108982;-71
2022/07/08 05:12:28;;;;;;;5.30;4.80;;;;;;;18.29;73.83;100555.98;130308;1267;108737;-71
2022/07/08 05:15:34;;;;;;;6.40;5.70;;;;;;;18.40;73.80;100561.54;130153;1267;109598;-71
2022/07/08 05:18:40;;;;;;;6.20;5.50;;;;;;;18.43;73.75;100560.98;130293;1267;108819;-71
2022/07/08 05:21:45;;;;;;;7.20;6.00;;;;;;;18.43;73.85;100560.52;130261;1267;108916;-71
2022/07/08 05:24:50;;;;;;;6.90;6.30;;;;;;;18.48;73.65;100563.64;130272;1268;107789;-70
2022/07/08 05:27:56;;;;;;;6.90;6.30;;;;;;;18.39;73.52;100566.14;130155;1268;108792;-70
2022/07/08 05:31:01;;;;;;;7.40;6.70;;;;;;;18.40;73.83;100571.57;130135;1268;109145;-72
2022/07/08 05:34:07;;;;;;;8.00;6.30;;;;;;;18.43;73.65;100573.58;130151;1268;108856;-71
2022/07/08 05:37:12;;;;;;;7.40;6.50;;;;;;;18.32;73.70;100577.20;130154;1268;108757;-71
2022/07/08 05:40:18;;;;;;;7.00;6.20;;;;;;;18.26;73.90;100581.02;130138;1268;108756;-71
2022/07/08 05:43:23;;;;;;;7.40;6.30;;;;;;;18.29;73.90;100584.02;130237;1268;108722;-71
2022/07/08 05:46:29;;;;;;;7.40;6.70;;;;;;;18.36;73.97;100586.04;130057;1268;107725;-73
2022/07/08 05:49:34;;;;;;;8.10;7.40;;;;;;;18.40;73.64;100588.19;130089;1268;109841;-71
2022/07/08 05:52:40;;;;;;;6.30;5.70;;;;;;;18.43;73.70;100582.40;130142;1268;108628;-71
2022/07/08 05:55:45;;;;;;;8.40;5.80;;;;;;;18.67;73.84;100583.91;130140;1268;109001;-74
2022/07/08 05:58:51;;;;;;;7.90;6.40;;;;;;;18.85;73.30;100580.36;130278;1267;108716;-71
2022/07/08 06:01:57;;;;;;;7.00;6.30;;;;;;;19.00;72.91;100583.77;130197;1268;108736;-72
2022/07/08 06:05:02;;;;;;;11.40;6.10;;;;;;;19.08;72.64;100585.23;130231;1268;108825;-72
2022/07/08 06:08:08;;;;;;;4.80;4.40;;;;;;;19.15;72.67;100587.25;130233;1268;108820;-71
2022/07/08 06:11:13;;;;;;;7.50;6.30;;;;;;;19.39;72.83;100585.88;130061;1268;108545;-72
2022/07/08 06:14:19;;;;;;;6.90;6.10;;;;;;;19.51;72.33;100588.54;130220;1268;108773;-71
2022/07/08 06:17:24;;;;;;;5.60;5.10;;;;;;;19.63;72.69;100590.42;130080;1268;108592;-72
2022/07/08 06:20:30;;;;;;;5.40;4.90;;;;;;;19.83;72.56;100589.49;130220;1268;108792;-71
2022/07/08 06:23:35;;;;;;;5.10;4.70;;;;;;;20.08;72.40;100592.81;130222;1268;108736;-72
2022/07/08 06:26:43;;;;;;;3.60;3.30;;;;;;;20.28;71.79;100598.33;130211;1268;108758;-71
2022/07/08 06:29:48;;;;;;;4.40;3.80;;;;;;;20.40;71.17;100605.06;130303;1268;108212;-71
2022/07/08 06:32:54;;;;;;;4.70;4.20;;;;;;;20.38;70.21;100606.23;130275;1268;108762;-71
2022/07/08 06:35:59;;;;;;;5.20;4.60;;;;;;;20.16;70.22;100605.45;130225;1268;108866;-72
2022/07/08 06:39:05;;;;;;;4.80;4.40;;;;;;;19.99;69.73;100609.42;130223;1268;108534;-72
2022/07/08 06:42:10;;;;;;;5.30;4.80;;;;;;;19.79;70.17;100610.60;130202;1268;108759;-73
2022/07/08 06:45:16;;;;;;;5.50;4.40;;;;;;;19.76;70.21;100607.31;130191;1268;108908;-71
2022/07/08 06:48:21;;;;;;;4.20;3.80;;;;;;;19.77;71.03;100610.97;130251;1268;108580;-73
2022/07/08 06:51:27;;;;;;;4.50;4.10;;;;;;;19.97;70.77;100614.64;130240;1268;108862;-71
2022/07/08 06:54:38;;;;;;;4.90;4.20;;;;;;;20.19;70.60;100607.48;130135;1268;108891;-72
2022/07/08 06:57:44;;;;;;;4.70;4.30;;;;;;;20.43;70.45;100609.95;130271;1268;108794;-72
2022/07/08 07:00:49;;;;;;;3.90;3.50;;;;;;;20.68;69.56;100602.90;130150;1268;108741;-71
2022/07/08 07:03:55;;;;;;;3.80;3.40;;;;;;;20.86;69.66;100600.56;130133;1268;108732;-71
2022/07/08 07:07:00;;;;;;;3.50;3.20;;;;;;;21.12;69.81;100598.02;130088;1268;108758;-73
2022/07/08 07:10:06;;;;;;;3.20;2.90;;;;;;;21.34;69.34;100597.77;130238;1268;109015;-71
2022/07/08 07:13:12;;;;;;;2.90;2.70;;;;;;;21.53;68.86;100595.66;130201;1268;108920;-71
2022/07/08 07:16:17;;;;;;;3.60;3.30;;;;;;;21.67;67.86;100588.52;130227;1268;107842;-72
2022/07/08 07:19:23;;;;;;;4.60;4.20;;;;;;;21.56;67.33;100587.96;130196;1268;107739;-71
2022/07/08 07:22:28;;;;;;;4.40;4.00;;;;;;;21.52;67.07;100587.65;130179;1268;108642;-72
2022/07/08 07:25:33;;;;;;;3.60;3.30;;;;;;;21.43;67.02;100584.91;130194;1268;108714;-71
2022/07/08 07:28:39;;;;;;;3.00;2.80;;;;;;;21.53;67.88;100584.01;130258;1268;108733;-71
2022/07/08 07:31:44;;;;;;;2.90;2.70;;;;;;;21.86;66.77;100584.48;130105;1268;108933;-71
2022/07/08 07:34:49;;;;;;;4.90;2.90;;;;;;;21.91;67.15;100588.91;130137;1268;108857;-71
2022/07/08 07:37:55;;;;;;;3.30;2.90;;;;;;;21.83;65.80;100591.52;130310;1268;108835;-71
2022/07/08 07:41:00;;;;;;;3.90;3.60;;;;;;;21.64;65.58;100587.75;130288;1268;108973;-72
2022/07/08 07:44:06;;;;;;;3.90;3.50;;;;;;;21.42;65.76;100587.02;130276;1268;108639;-72
2022/07/08 07:47:11;;;;;;;3.10;2.80;;;;;;;21.47;66.26;100589.38;130244;1269;108258;-72
2022/07/08 07:50:17;;;;;;;2.50;2.30;;;;;;;21.43;65.54;100584.70;130213;1268;109243;-74
2022/07/08 07:53:23;;;;;;;2.10;1.70;;;;;;;21.42;65.99;100583.92;130192;1268;108839;-71
2022/07/08 07:56:28;;;;;;;2.10;1.80;;;;;;;21.63;65.15;100588.64;130081;1268;107697;-72
2022/07/08 07:59:34;;;;;;;2.10;1.90;;;;;;;21.66;63.37;100593.63;130058;1268;108652;-71
2022/07/08 08:02:40;;;;;;;2.50;2.00;;;;;;;21.61;63.29;100595.41;130211;1268;108807;-72
2022/07/08 08:05:46;;;;;;;1.90;1.80;;;;;;;21.74;63.51;100593.33;130200;1268;108833;-71
2022/07/08 08:08:51;;;;;;;4.90;1.90;;;;;;;21.92;64.05;100590.58;130249;1268;107785;-72
2022/07/08 08:11:57;;;;;;;1.70;1.60;;;;;;;21.90;62.26;100590.13;130206;1268;108881;-72
2022/07/08 08:15:02;;;;;;;2.10;1.90;;;;;;;21.63;62.46;100590.30;130197;1268;108811;-72
2022/07/08 08:18:08;;;;;;;2.70;2.50;;;;;;;21.45;62.52;100592.39;130205;1268;108917;-72
2022/07/08 08:21:13;;;;;;;2.20;2.00;;;;;;;21.43;63.28;100597.08;130225;1268;108988;-72
2022/07/08 08:24:18;;;;;;;2.30;2.10;;;;;;;21.42;62.44;100598.84;130227;1268;108653;-72
2022/07/08 08:27:24;;;;;;;3.20;2.90;;;;;;;21.29;62.31;100597.13;130212;1268;109033;-72
2022/07/08 08:30:29;;;;;;;2.90;2.70;;;;;;;21.27;62.31;100594.25;130217;1268;108811;-72
2022/07/08 08:33:34;;;;;;;2.90;2.70;;;;;;;21.43;63.40;100595.33;130258;1268;108676;-71
2022/07/08 08:36:40;;;;;;;3.00;2.80;;;;;;;21.62;63.20;100594.19;130200;1268;108549;-72
2022/07/08 08:39:45;;;;;;;3.40;3.10;;;;;;;21.73;63.04;100596.52;130221;1268;108963;-72
2022/07/08 08:42:50;;;;;;;3.40;3.00;;;;;;;21.57;62.88;100593.55;130193;1268;107691;-72
2022/07/08 08:45:56;;;;;;;3.40;3.10;;;;;;;21.58;63.38;100594.94;130217;1268;108900;-72
2022/07/08 08:49:04;;;;;;;3.30;3.00;;;;;;;21.58;62.93;100596.60;130186;1268;108968;-72
2022/07/08 08:52:11;;;;;;;3.30;3.00;;;;;;;21.66;63.12;100598.18;130254;1268;106939;-71
2022/07/08 08:55:24;;;;;;;2.90;2.60;;;;;;;21.67;63.08;100600.30;130194;1268;108973;-72
2022/07/08 08:58:30;;;;;;;2.60;2.40;;;;;;;21.83;62.68;100599.13;130201;1268;108802;-71
2022/07/08 09:01:35;;;;;;;3.80;3.50;;;;;;;22.01;62.65;100591.89;130210;1268;109229;-72
2022/07/08 09:04:41;;;;;;;2.90;2.70;;;;;;;22.21;61.94;100586.86;130212;1268;108756;-71
2022/07/08 09:07:46;;;;;;;3.80;3.50;;;;;;;22.37;61.41;100589.63;130225;1268;108657;-72
2022/07/08 09:10:52;;;;;;;3.80;3.50;;;;;;;22.32;61.93;100588.87;130117;1268;108644;-72
2022/07/08 09:14:16;;;;;;;4.00;3.70;;;;;;;22.43;61.73;100597.85;130195;1268;108805;-73
2022/07/08 09:17:22;;;;;;;4.70;3.20;;;;;;;22.09;62.16;100603.45;130260;1268;108731;-72
2022/07/08 09:20:27;;;;;;;2.80;2.50;;;;;;;21.52;62.66;100613.20;130251;1268;108255;-72
2022/07/08 09:23:34;;;;;;;3.10;2.80;;;;;;;20.96;63.60;100619.54;130166;1270;109136;-71
2022/07/08 09:26:40;;;;;;;3.50;2.50;;;;;;;20.51;64.38;100622.83;130112;1271;108793;-71
2022/07/08 09:29:58;;;;;;;2.70;2.50;;;;;;;20.10;65.08;100626.02;130177;1271;108142;-73
2022/07/08 09:33:04;;;;;;;3.60;3.30;;;;;;;19.73;66.11;100631.86;130246;1268;108709;-73
2022/07/08 09:36:11;;;;;;;4.50;3.90;;;;;;;19.55;67.20;100630.48;130219;1268;108845;-71
2022/07/08 09:39:25;;;;;;;4.60;4.20;;;;;;;19.52;67.00;100630.95;130260;1268;108946;-71
2022/07/08 09:42:40;;;;;;;5.80;4.90;;;;;;;19.60;68.17;100633.42;130192;1271;109907;-72
2022/07/08 09:45:45;;;;;;;7.10;4.70;;;;;;;19.66;68.54;100630.12;130161;1268;108791;-72
2022/07/08 09:48:51;;;;;;;6.20;5.20;;;;;;;19.79;68.86;100630.17;130201;1268;108648;-72
2022/07/08 09:51:57;;;;;;;7.30;6.20;;;;;;;20.04;69.14;100628.65;130279;1268;108791;-72
2022/07/08 09:55:04;;;;;;;6.50;5.90;;;;;;;20.30;69.37;100622.13;130323;1269;108914;-73
2022/07/08 09:58:11;;;;;;;7.10;6.50;;;;;;;20.58;69.27;100618.54;130238;1269;108592;-72
2022/07/08 10:01:17;;;;;;;7.90;7.20;;;;;;;20.77;69.22;100613.95;130297;1268;108628;-72
2022/07/08 10:04:24;;;;;;;7.30;6.50;;;;;;;20.93;69.68;100619.16;130251;1268;107224;-72
2022/07/08 10:07:29;;;;;;;6.40;5.80;;;;;;;20.96;69.91;100622.03;130193;1270;109040;-72
2022/07/08 10:10:35;;;;;;;6.70;6.10;;;;;;;20.97;70.08;100623.91;130187;1269;108809;-73
2022/07/08 10:13:43;;;;;;;7.10;6.50;;;;;;;21.07;69.69;100624.80;130216;1268;108869;-73
2022/07/08 10:16:50;;;;;;;7.50;6.80;;;;;;;21.16;69.56;100627.16;130194;1271;108819;-72
2022/07/08 10:19:56;;;;;;;7.10;6.50;;;;;;;20.95;69.26;100626.71;130174;1269;108802;-72
2022/07/08 10:23:06;;;;;;;7.40;6.70;;;;;;;20.68;70.18;100625.84;130283;1268;107742;-72
2022/07/08 10:26:13;;;;;;;7.10;6.50;;;;;;;20.70;70.45;100623.22;130230;1268;109208;-73
2022/07/08 10:29:18;;;;;;;6.40;5.80;;;;;;;20.79;69.98;100621.61;130191;1269;107633;-72
2022/07/08 10:32:30;;;;;;;7.30;6.60;;;;;;;20.84;69.96;100617.23;130223;1270;107670;-72
2022/07/08 10:35:36;;;;;;;7.10;6.50;;;;;;;20.85;69.70;100612.92;130218;1268;108300;-74
2022/07/08 10:38:43;;;;;;;7.20;6.20;;;;;;;20.92;70.12;100612.63;130377;1268;108674;-73
2022/07/08 10:41:59;;;;;;;7.20;6.60;;;;;;;20.93;70.28;100612.81;130273;1270;108745;-72
2022/07/08 10:45:06;;;;;;;7.00;6.30;;;;;;;21.05;70.16;100607.19;130299;1270;108876;-73
2022/07/08 10:48:11;;;;;;;6.60;6.10;;;;;;;21.09;69.79;100604.80;130291;1268;108991;-73
2022/07/08 10:51:48;;;;;;;6.10;5.60;;;;;;;21.16;70.03;100598.77;130262;1268;108937;-73
2022/07/08 10:55:10;;;;;;;5.60;5.10;;;;;;;21.36;69.64;100590.88;130122;1270;108768;-72
2022/07/08 10:58:16;;;;;;;5.10;4.70;;;;;;;21.48;69.25;100591.84;130267;1268;107675;-73
2022/07/08 11:01:26;;;;;;;5.20;4.70;;;;;;;21.51;69.29;100586.48;130287;1268;108959;-72
2022/07/08 11:04:46;;;;;;;4.90;4.50;;;;;;;21.94;69.02;100584.04;130340;1268;108925;-72
2022/07/08 11:07:51;;;;;;;6.00;5.50;;;;;;;22.29;68.27;100581.98;130470;1268;108600;-72
2022/07/08 11:10:57;;;;;;;3.90;3.60;;;;;;;22.29;68.08;100575.71;130383;1267;108693;-73
2022/07/08 11:14:02;;;;;;;4.50;4.00;;;;;;;22.52;67.83;100575.09;130223;1268;107106;-73
2022/07/08 11:17:15;;;;;;;4.80;4.40;;;;;;;22.80;67.05;100573.38;130239;1269;108897;-72
2022/07/08 11:20:20;;;;;;;4.20;3.80;;;;;;;22.95;67.50;100571.55;130330;1271;108733;-73
2022/07/08 11:23:27;;;;;;;5.40;5.00;;;;;;;23.17;66.66;100561.13;130231;1267;108864;-73
2022/07/08 11:26:33;;;;;;;5.00;4.60;;;;;;;22.85;65.53;100575.17;130232;1270;108749;-73
2022/07/08 11:29:46;;;;;;;5.50;5.00;;;;;;;22.17;66.44;100590.14;130239;1268;108859;-73
2022/07/08 11:32:52;;;;;;;5.30;4.80;;;;;;;21.74;67.91;100590.78;130214;1271;108683;-73
2022/07/08 11:35:57;;;;;;;4.30;3.90;;;;;;;21.67;68.62;100582.21;130167;1269;108772;-73
2022/07/08 11:39:05;;;;;;;4.40;4.00;;;;;;;21.75;68.86;100581.08;130182;1268;108163;-73
2022/07/08 11:42:11;;;;;;;4.70;4.30;;;;;;;21.68;68.74;100580.29;130220;1268;108715;-73
2022/07/08 11:45:16;;;;;;;4.40;3.50;;;;;;;21.44;69.30;100583.70;130178;1268;108672;-73
2022/07/08 11:48:21;;;;;;;4.20;2.90;;;;;;;21.08;69.92;100583.31;130313;1267;108660;-73
2022/07/08 11:51:27;;;;;;;3.60;2.70;;;;;;;20.86;70.07;100578.79;130414;1267;109050;-73
2022/07/08 11:54:32;;;;;;;2.50;2.10;;;;;;;20.84;70.27;100577.09;130414;1268;108876;-72
2022/07/08 11:57:43;;;;;;;2.50;2.30;;;;;;;20.91;70.13;100578.73;130351;1267;108839;-71
2022/07/08 12:00:49;;;;;;;2.80;2.00;;;;;;;21.03;70.12;100573.05;130525;1268;108997;-73
2022/07/08 12:03:54;;;;;;;2.00;1.90;;;;;;;21.17;70.26;100573.25;130246;1270;108783;-72
2022/07/08 12:07:02;;;;;;;2.40;1.90;;;;;;;21.18;70.16;100567.94;130320;1267;108741;-72
2022/07/08 12:10:08;;;;;;;1.90;1.80;;;;;;;21.33;70.17;100566.54;130379;1267;109083;-73
2022/07/08 12:13:14;;;;;;;2.30;2.10;;;;;;;21.52;70.20;100571.48;130390;1267;108856;-73
2022/07/08 12:16:34;;;;;;;2.30;2.10;;;;;;;21.68;70.20;100574.15;130385;1267;108948;-73
2022/07/08 12:19:40;;;;;;;3.10;2.30;;;;;;;21.87;69.63;100577.02;130338;1267;108564;-73
2022/07/08 12:22:50;;;;;;;2.60;2.40;;;;;;;22.03;69.58;100571.31;130353;1267;108746;-73
2022/07/08 12:25:55;;;;;;;2.80;2.20;;;;;;;22.28;69.66;100573.84;130406;1267;108215;-73
2022/07/08 12:29:00;;;;;;;4.10;3.00;;;;;;;22.53;69.06;100570.06;130272;1270;108618;-72
2022/07/08 12:32:08;;;;;;;5.10;3.50;;;;;;;22.57;68.68;100568.94;130351;1270;108746;-72
2022/07/08 12:35:13;;;;;;;4.50;4.10;;;;;;;22.44;67.66;100568.31;130258;1269;109122;-73
2022/07/08 12:38:25;;;;;;;4.80;4.30;;;;;;;22.01;67.93;100564.23;130350;1268;109988;-74
2022/07/08 12:41:30;;;;;;;4.90;4.40;;;;;;;21.55;68.20;100568.52;130343;1268;108632;-72
2022/07/08 12:44:39;;;;;;;5.30;4.80;;;;;;;21.20;69.33;100571.78;130389;1267;108801;-72
2022/07/08 12:47:46;;;;;;;6.00;4.60;;;;;;;21.02;69.51;100565.31;130355;1268;109050;-72
2022/07/08 12:50:51;;;;;;;6.00;4.40;;;;;;;20.91;70.21;100566.05;130312;1268;109116;-73
2022/07/08 12:53:56;;;;;;;5.80;5.20;;;;;;;21.04;70.64;100563.48;130423;1267;108660;-73
2022/07/08 12:57:03;;;;;;;6.40;5.70;;;;;;;21.28;70.22;100560.34;130218;1269;108097;-73
2022/07/08 13:00:11;;;;;;;8.50;6.20;;;;;;;21.43;69.60;100557.56;130337;1268;108798;-73
2022/07/08 13:03:16;;;;;;;7.10;6.10;;;;;;;21.47;69.28;100554.42;130397;1268;108930;-73
2022/07/08 13:06:22;;;;;;;7.40;6.40;;;;;;;21.47;69.40;100549.58;130081;1268;421578;-73
2022/07/08 13:09:27;;;;;;;8.70;7.10;;;;;;;21.42;69.28;100548.99;130327;1268;107876;-73
2022/07/08 13:12:34;;;;;;;8.40;7.20;;;;;;;21.56;69.14;100545.56;130427;1268;108773;-72
2022/07/08 13:15:40;;;;;;;8.80;7.10;;;;;;;21.71;68.46;100545.13;130360;1267;108730;-73
2022/07/08 13:18:45;;;;;;;8.90;7.60;;;;;;;21.70;67.75;100540.70;130281;1268;108862;-72
2022/07/08 13:21:51;;;;;;;8.20;6.80;;;;;;;21.74;67.54;100529.40;130264;1268;108750;-72
2022/07/08 13:24:56;;;;;;;8.30;7.30;;;;;;;21.84;68.20;100525.27;130325;1268;108831;-73
2022/07/08 13:28:01;;;;;;;8.00;7.20;;;;;;;21.78;67.15;100519.63;130374;1268;107728;-72
2022/07/08 13:31:07;;;;;;;8.00;7.20;;;;;;;21.60;66.30;100522.98;130434;1268;107843;-73
2022/07/08 13:34:19;;;;;;;7.80;7.00;;;;;;;21.48;66.59;100526.44;130380;1268;108257;-73
2022/07/08 13:37:24;;;;;;;8.40;6.80;;;;;;;21.59;66.19;100517.69;130216;1269;108641;-73
2022/07/08 13:40:30;;;;;;;8.10;6.40;;;;;;;21.73;65.76;100515.27;130342;1267;108788;-72
2022/07/08 13:43:35;;;;;;;8.80;6.40;;;;;;;21.89;65.56;100511.73;130326;1268;107768;-73
2022/07/08 13:46:41;;;;;;;6.60;5.90;;;;;;;22.11;63.74;100523.38;130375;1268;108172;-72
2022/07/08 13:49:46;;;;;;;6.70;6.00;;;;;;;22.00;62.72;100514.70;130359;1267;107752;-73
2022/07/08 13:52:51;;;;;;;6.90;6.20;;;;;;;21.78;63.84;100521.89;130360;1268;108865;-73
2022/07/08 13:55:57;;;;;;;7.00;6.30;;;;;;;21.65;64.87;100519.77;130273;1268;108910;-73
2022/07/08 13:59:02;;;;;;;6.50;5.80;;;;;;;21.58;64.50;100527.00;130205;1271;108724;-73
2022/07/08 14:02:08;;;;;;;6.20;5.50;;;;;;;21.41;64.43;100534.52;130397;1267;108667;-72
2022/07/08 14:05:13;;;;;;;6.00;5.30;;;;;;;21.34;64.86;100539.73;130270;1268;108730;-72
2022/07/08 14:08:18;;;;;;;5.20;4.10;;;;;;;21.31;65.51;100552.19;130314;1268;108808;-72